Terminal Aerodrome Forecast
Issued by NWS Missoula, MT

Home | Current Version | Previous Version | Text Only | Print | Product List | Glossary On
Versions: 1 2 3 4 5 6 7 8 9 10 11 12 13 14 15 16
000
FTUS45 KMSO 302320
TAFGPI
TAF
KGPI 302320Z 0100/0124 17010KT P6SM VCSH BKN035 OVC050
     FM010400 20006KT P6SM -SHRA SCT030 BKN040
     FM011400 VRB04KT P6SM BKN050=

USA.gov is the U.S. government's official web portal to all federal, state and local government web resources and services.